createdAt,value
2018-09-06T00:00:41.607Z,20.31
2018-09-06T00:03:17.553Z,20.30
2018-09-06T00:05:53.568Z,20.37
2018-09-06T00:08:29.317Z,20.33
2018-09-06T00:11:05.223Z,20.21
2018-09-06T00:13:41.127Z,20.20
2018-09-06T00:16:16.946Z,20.17
2018-09-06T00:18:52.907Z,20.15
2018-09-06T00:21:28.924Z,20.17
2018-09-06T00:24:04.774Z,20.18
2018-09-06T00:26:40.734Z,20.23
2018-09-06T00:29:16.844Z,20.28
2018-09-06T00:31:52.758Z,20.27
2018-09-06T00:34:28.595Z,20.30
2018-09-06T00:37:04.463Z,20.36
2018-09-06T00:39:40.315Z,20.44
2018-09-06T00:42:16.267Z,20.47
2018-09-06T00:44:52.373Z,20.48
2018-09-06T00:47:28.547Z,20.49
2018-09-06T00:50:05.911Z,20.46
2018-09-06T00:52:41.977Z,20.36
2018-09-06T00:55:18.377Z,20.33
2018-09-06T00:57:54.327Z,20.27
2018-09-06T01:00:30.320Z,20.21
2018-09-06T01:03:06.272Z,20.20
2018-09-06T01:05:42.308Z,20.21
2018-09-06T01:08:18.163Z,20.23
2018-09-06T01:10:54.189Z,20.24
2018-09-06T01:13:30.257Z,20.21
2018-09-06T01:16:07.484Z,20.22
2018-09-06T01:18:43.540Z,20.21
2018-09-06T01:21:19.457Z,20.20
2018-09-06T01:23:55.273Z,20.18
2018-09-06T01:26:31.481Z,20.18
2018-09-06T01:29:07.531Z,20.12
2018-09-06T01:31:43.472Z,20.09
2018-09-06T01:34:19.439Z,20.08
2018-09-06T01:36:55.218Z,20.03
2018-09-06T01:39:31.122Z,19.94
2018-09-06T01:42:07.851Z,19.88
2018-09-06T01:44:43.745Z,19.90
2018-09-06T01:47:19.750Z,19.92
2018-09-06T01:49:55.718Z,19.88
2018-09-06T01:52:31.695Z,19.87
2018-09-06T01:55:07.568Z,19.88
2018-09-06T01:57:43.561Z,19.83
2018-09-06T02:00:19.515Z,19.82
2018-09-06T02:02:55.492Z,19.81
2018-09-06T02:05:35.703Z,19.79
2018-09-06T02:08:11.719Z,19.70
2018-09-06T02:10:47.593Z,19.61
2018-09-06T02:13:23.643Z,19.54
2018-09-06T02:15:59.538Z,19.47
2018-09-06T02:18:35.473Z,19.44
2018-09-06T02:21:11.402Z,19.45
2018-09-06T02:23:47.364Z,19.40
2018-09-06T02:26:23.214Z,19.38
2018-09-06T02:28:59.200Z,19.29
2018-09-06T02:31:35.241Z,19.20
2018-09-06T02:34:11.194Z,19.11
2018-09-06T02:36:47.081Z,19.03
2018-09-06T02:39:23.043Z,18.94
2018-09-06T02:41:58.965Z,18.98
2018-09-06T02:44:34.777Z,19.03
2018-09-06T02:47:10.676Z,19.03
2018-09-06T02:49:51.833Z,18.95
2018-09-06T02:52:27.908Z,18.88
2018-09-06T02:55:03.805Z,18.69
2018-09-06T02:57:39.720Z,18.66
2018-09-06T03:00:15.828Z,18.71
2018-09-06T03:02:52.420Z,18.84
2018-09-06T03:05:28.482Z,18.80
2018-09-06T03:08:04.580Z,18.83
2018-09-06T03:10:42.797Z,18.88
2018-09-06T03:13:18.813Z,18.94
2018-09-06T03:15:54.695Z,19.01
2018-09-06T03:18:30.624Z,19.06
2018-09-06T03:21:06.911Z,19.13
2018-09-06T03:23:42.844Z,19.18
2018-09-06T03:26:20.139Z,19.25
2018-09-06T03:28:56.151Z,19.30
2018-09-06T03:31:32.043Z,19.30
2018-09-06T03:34:07.947Z,19.34
2018-09-06T03:36:43.680Z,19.39
2018-09-06T03:39:19.511Z,19.34
2018-09-06T03:41:55.341Z,19.32
2018-09-06T03:44:31.257Z,19.31
2018-09-06T03:47:07.315Z,19.26
2018-09-06T03:49:43.124Z,19.25
2018-09-06T03:52:18.916Z,19.23
2018-09-06T03:54:54.901Z,19.18
2018-09-06T03:57:30.928Z,19.23
2018-09-06T04:00:06.965Z,19.23
2018-09-06T04:02:42.891Z,19.23
2018-09-06T04:05:18.762Z,19.20
2018-09-06T04:07:54.672Z,19.19
2018-09-06T04:10:30.552Z,19.20
2018-09-06T04:13:06.666Z,19.23
2018-09-06T04:15:42.469Z,19.28
2018-09-06T04:18:18.477Z,19.27
2018-09-06T04:20:54.323Z,19.27
2018-09-06T04:23:30.214Z,19.27
2018-09-06T04:26:06.369Z,19.27
2018-09-06T04:28:42.247Z,19.28
2018-09-06T04:31:18.292Z,19.27
2018-09-06T04:33:54.175Z,19.28
2018-09-06T04:36:30.068Z,19.30
2018-09-06T04:39:10.447Z,19.31
2018-09-06T04:41:46.088Z,19.30
2018-09-06T04:44:22.130Z,19.26
2018-09-06T04:46:58.103Z,19.31
2018-09-06T04:49:34.057Z,19.25
2018-09-06T04:52:09.975Z,19.21
2018-09-06T04:54:46.033Z,19.26
2018-09-06T04:57:21.905Z,19.31
2018-09-06T04:59:58.033Z,19.21
2018-09-06T05:02:33.882Z,19.14
2018-09-06T05:05:09.989Z,19.10
2018-09-06T05:07:45.946Z,19.13
2018-09-06T05:10:21.728Z,19.17
2018-09-06T05:12:57.535Z,19.16
2018-09-06T05:15:33.560Z,19.18
2018-09-06T05:18:09.756Z,19.19
2018-09-06T05:20:45.669Z,19.14
2018-09-06T05:23:21.528Z,19.20
2018-09-06T05:25:57.543Z,19.12
2018-09-06T05:28:33.565Z,19.10
2018-09-06T05:31:09.649Z,19.05
2018-09-06T05:33:45.544Z,19.04
2018-09-06T05:36:21.611Z,18.94
2018-09-06T05:38:57.433Z,18.88
2018-09-06T05:41:33.387Z,18.80
2018-09-06T05:44:10.023Z,18.82
2018-09-06T05:46:46.100Z,18.74
2018-09-06T05:49:22.053Z,18.71
2018-09-06T05:51:58.310Z,18.75
2018-09-06T05:54:34.251Z,18.72
2018-09-06T05:57:10.131Z,18.72
2018-09-06T05:59:46.159Z,18.75
2018-09-06T06:02:22.073Z,18.76
2018-09-06T06:04:57.912Z,18.77
2018-09-06T06:07:50.699Z,18.76
2018-09-06T06:10:26.888Z,18.77
2018-09-06T06:13:03.061Z,18.79
2018-09-06T06:15:39.021Z,18.84
2018-09-06T06:18:15.095Z,18.88
2018-09-06T06:20:51.255Z,18.91
2018-09-06T06:23:27.275Z,18.87
2018-09-06T06:26:03.236Z,18.75
2018-09-06T06:28:39.101Z,18.60
2018-09-06T06:31:14.941Z,18.58
2018-09-06T06:33:50.864Z,18.62
2018-09-06T06:36:26.863Z,18.57
2018-09-06T06:39:03.024Z,18.57
2018-09-06T06:41:38.953Z,18.59
2018-09-06T06:44:14.967Z,18.60
2018-09-06T06:46:50.828Z,18.72
2018-09-06T06:49:26.839Z,18.72
2018-09-06T06:52:02.933Z,18.74
2018-09-06T06:54:38.849Z,18.71
2018-09-06T06:57:14.856Z,18.69
2018-09-06T06:59:52.526Z,18.61
2018-09-06T07:02:29.219Z,18.66
2018-09-06T07:05:05.178Z,18.74
2018-09-06T07:07:41.138Z,18.76
2018-09-06T07:10:17.386Z,18.65
2018-09-06T07:12:53.438Z,18.63
2018-09-06T07:15:29.451Z,18.63
2018-09-06T07:18:05.493Z,18.71
2018-09-06T07:20:41.506Z,18.82
2018-09-06T07:23:17.385Z,18.92
2018-09-06T07:25:53.311Z,18.99
2018-09-06T07:28:29.201Z,19.01
2018-09-06T07:31:05.190Z,18.96
2018-09-06T07:33:41.011Z,18.93
2018-09-06T07:36:16.857Z,18.99
2018-09-06T07:38:52.906Z,18.98
2018-09-06T07:41:29.010Z,18.91
2018-09-06T07:44:05.205Z,18.89
2018-09-06T07:46:41.065Z,18.63
2018-09-06T07:49:17.182Z,18.49
2018-09-06T07:51:53.227Z,18.39
2018-09-06T07:54:29.145Z,18.24
2018-09-06T07:57:05.006Z,18.20
2018-09-06T07:59:40.962Z,18.20
2018-09-06T08:02:17.061Z,18.18
2018-09-06T08:04:53.024Z,18.11
2018-09-06T08:07:28.896Z,18.04
2018-09-06T08:10:05.161Z,18.00
2018-09-06T08:12:41.200Z,17.96
2018-09-06T08:15:17.196Z,17.89
2018-09-06T08:17:53.084Z,17.87
2018-09-06T08:20:28.997Z,17.81
2018-09-06T08:23:05.072Z,17.89
2018-09-06T08:25:41.180Z,17.78
2018-09-06T08:28:17.178Z,17.83
2018-09-06T08:30:53.447Z,17.78
2018-09-06T08:33:29.336Z,17.87
2018-09-06T08:36:06.358Z,17.81
2018-09-06T08:38:42.159Z,17.82
2018-09-06T08:41:18.036Z,17.82
2018-09-06T08:43:53.999Z,17.83
2018-09-06T08:46:29.911Z,17.78
2018-09-06T08:49:05.805Z,17.79
2018-09-06T08:51:41.737Z,17.75
2018-09-06T08:54:17.787Z,17.74
2018-09-06T08:56:53.824Z,17.74
2018-09-06T08:59:29.988Z,17.69
2018-09-06T09:02:09.965Z,17.69
2018-09-06T09:04:45.991Z,17.78
2018-09-06T09:07:21.869Z,17.86
2018-09-06T09:09:57.861Z,17.94
2018-09-06T09:12:33.929Z,18.05
2018-09-06T09:15:09.852Z,18.07
2018-09-06T09:17:45.845Z,18.07
2018-09-06T09:20:21.852Z,18.02
2018-09-06T09:22:57.889Z,18.01
2018-09-06T09:25:33.874Z,17.99
2018-09-06T09:28:09.957Z,18.01
2018-09-06T09:30:46.053Z,18.00
2018-09-06T09:33:22.095Z,18.03
2018-09-06T09:35:58.173Z,18.11
2018-09-06T09:38:34.480Z,18.17
2018-09-06T09:41:10.575Z,18.19
2018-09-06T09:43:46.654Z,18.25
2018-09-06T09:48:57.579Z,18.43
2018-09-06T09:51:33.622Z,18.43
2018-09-06T09:54:09.633Z,18.39
2018-09-06T09:56:45.887Z,18.43
2018-09-06T09:59:21.992Z,18.38
2018-09-06T10:02:03.150Z,18.36
2018-09-06T10:04:54.722Z,18.27
2018-09-06T10:07:35.680Z,18.35
2018-09-06T10:10:11.797Z,18.32
2018-09-06T10:12:47.892Z,18.32
2018-09-06T10:15:24.101Z,18.52
2018-09-06T10:18:00.051Z,18.44
2018-09-06T10:20:36.029Z,18.34
2018-09-06T10:23:12.078Z,18.34
2018-09-06T10:25:48.185Z,18.27
2018-09-06T10:28:24.167Z,18.27
2018-09-06T10:31:00.157Z,18.36
2018-09-06T10:33:36.337Z,18.46
2018-09-06T10:36:12.476Z,18.50
2018-09-06T10:38:48.419Z,18.41
2018-09-06T10:41:24.435Z,18.44
2018-09-06T10:44:00.312Z,18.48
2018-09-06T10:46:36.330Z,18.66
2018-09-06T10:49:12.289Z,18.60
2018-09-06T10:51:48.419Z,18.57
2018-09-06T10:54:24.411Z,18.60
2018-09-06T10:57:00.491Z,18.53
2018-09-06T10:59:36.553Z,18.51
2018-09-06T11:02:12.634Z,18.59
2018-09-06T11:04:48.812Z,18.67
2018-09-06T11:07:24.839Z,18.63
2018-09-06T11:10:00.889Z,18.69
2018-09-06T11:12:36.663Z,18.57
2018-09-06T11:15:12.697Z,18.60
2018-09-06T11:17:48.688Z,18.61
2018-09-06T11:20:24.657Z,18.58
2018-09-06T11:23:00.619Z,18.54
2018-09-06T11:25:36.684Z,18.49
2018-09-06T11:28:12.629Z,18.53
2018-09-06T11:30:48.740Z,18.49
2018-09-06T11:33:24.874Z,18.64
2018-09-06T11:36:00.870Z,18.55
2018-09-06T11:38:36.903Z,18.66
2018-09-06T11:41:12.782Z,18.64
2018-09-06T11:43:48.572Z,18.65
2018-09-06T11:46:24.411Z,18.64
2018-09-06T11:49:00.433Z,18.66
2018-09-06T11:51:36.472Z,18.65
2018-09-06T11:54:12.444Z,18.67
2018-09-06T11:56:48.290Z,18.69
2018-09-06T11:59:24.376Z,18.67
2018-09-06T12:02:00.501Z,18.66
2018-09-06T12:04:36.574Z,18.69
2018-09-06T12:07:12.612Z,18.77
2018-09-06T12:09:48.848Z,18.73
2018-09-06T12:12:24.751Z,18.75
2018-09-06T12:15:03.285Z,18.85
2018-09-06T12:17:39.336Z,18.98
2018-09-06T12:20:17.538Z,19.04
2018-09-06T12:22:53.651Z,19.17
2018-09-06T12:25:29.503Z,19.31
2018-09-06T12:28:05.580Z,19.50
2018-09-06T12:30:41.579Z,19.65
2018-09-06T12:33:18.035Z,19.70
2018-09-06T12:35:54.001Z,19.77
2018-09-06T12:38:30.255Z,19.66
2018-09-06T12:41:06.456Z,19.70
2018-09-06T12:43:42.548Z,19.60
2018-09-06T12:46:18.676Z,19.72
2018-09-06T12:48:54.553Z,19.91
2018-09-06T12:51:30.843Z,19.91
2018-09-06T12:54:07.078Z,20.05
2018-09-06T12:56:43.178Z,20.08
2018-09-06T12:59:19.741Z,20.21
2018-09-06T13:01:55.717Z,20.32
2018-09-06T13:04:31.747Z,20.34
2018-09-06T13:07:07.547Z,20.16
2018-09-06T13:09:43.621Z,20.13
2018-09-06T13:12:19.490Z,20.17
2018-09-06T13:14:55.473Z,20.32
2018-09-06T13:17:31.351Z,20.51
2018-09-06T13:20:07.833Z,20.70
2018-09-06T13:22:43.945Z,20.96
2018-09-06T13:25:19.985Z,21.18
2018-09-06T13:27:55.880Z,21.20
2018-09-06T13:30:31.873Z,21.45
2018-09-06T13:33:08.280Z,21.78
2018-09-06T13:35:44.395Z,22.02
2018-09-06T13:38:20.365Z,22.24
2018-09-06T13:40:56.287Z,22.22
2018-09-06T13:43:32.395Z,22.22
2018-09-06T13:46:08.404Z,22.21
2018-09-06T13:48:44.182Z,21.99
2018-09-06T13:51:20.229Z,21.64
2018-09-06T13:53:55.981Z,21.58
2018-09-06T13:56:31.989Z,21.45
2018-09-06T13:59:08.018Z,21.29
2018-09-06T14:01:44.193Z,21.26
2018-09-06T14:04:20.243Z,21.35
2018-09-06T14:06:56.036Z,21.40
2018-09-06T14:09:32.258Z,21.61
2018-09-06T14:12:08.267Z,21.56
2018-09-06T14:14:44.311Z,21.69
2018-09-06T14:17:20.299Z,21.78
2018-09-06T14:19:56.293Z,21.88
2018-09-06T14:22:32.246Z,21.75
2018-09-06T14:25:08.268Z,21.40
2018-09-06T14:27:44.367Z,21.33
2018-09-06T14:30:20.489Z,21.28
2018-09-06T14:32:56.543Z,21.23
2018-09-06T14:35:32.479Z,21.18
2018-09-06T14:38:08.560Z,21.20
2018-09-06T14:40:44.468Z,21.35
2018-09-06T14:43:20.517Z,21.22
2018-09-06T14:45:56.414Z,21.17
2018-09-06T14:48:32.404Z,21.13
2018-09-06T14:51:08.445Z,21.13
2018-09-06T14:53:44.348Z,21.17
2018-09-06T14:56:20.374Z,21.16
2018-09-06T14:58:56.455Z,21.08
2018-09-06T15:01:32.507Z,20.98
2018-09-06T15:04:08.697Z,21.06
2018-09-06T15:06:44.413Z,21.08
2018-09-06T15:09:20.417Z,21.07
2018-09-06T15:11:56.487Z,21.20
2018-09-06T15:14:32.387Z,21.31
2018-09-06T15:17:08.521Z,21.36
2018-09-06T15:19:44.558Z,21.36
2018-09-06T15:22:21.047Z,21.47
2018-09-06T15:24:57.115Z,21.49
2018-09-06T15:27:36.606Z,21.57
2018-09-06T15:30:12.790Z,21.57
2018-09-06T15:32:48.726Z,21.65
2018-09-06T15:35:25.106Z,21.61
2018-09-06T15:38:01.538Z,21.61
2018-09-06T15:40:37.438Z,21.41
2018-09-06T15:43:13.463Z,21.21
2018-09-06T15:45:49.604Z,21.19
2018-09-06T15:48:25.512Z,21.00
2018-09-06T15:51:01.689Z,20.85
2018-09-06T15:53:37.776Z,20.75
2018-09-06T15:56:14.579Z,20.72
2018-09-06T15:58:50.667Z,20.68
2018-09-06T16:01:27.509Z,20.66
2018-09-06T16:04:03.541Z,20.57
2018-09-06T16:06:39.476Z,20.58
2018-09-06T16:09:15.416Z,20.68
2018-09-06T16:11:52.477Z,20.78
2018-09-06T16:14:29.557Z,21.04
2018-09-06T16:17:05.649Z,21.05
2018-09-06T16:19:41.552Z,21.00
2018-09-06T16:22:17.675Z,21.01
2018-09-06T16:24:53.805Z,20.97
2018-09-06T16:27:29.845Z,20.95
2018-09-06T16:30:06.637Z,20.89
2018-09-06T16:32:42.729Z,20.81
2018-09-06T16:35:18.777Z,20.90
2018-09-06T16:37:54.801Z,20.78
2018-09-06T16:40:30.877Z,20.58
2018-09-06T16:43:06.973Z,20.53
2018-09-06T16:45:43.017Z,20.47
2018-09-06T16:48:20.004Z,20.32
2018-09-06T16:50:56.142Z,20.27
2018-09-06T16:53:34.566Z,20.10
2018-09-06T16:56:10.582Z,20.01
2018-09-06T16:58:46.806Z,20.07
2018-09-06T17:01:34.695Z,19.97
2018-09-06T17:04:15.560Z,19.88
2018-09-06T17:06:51.482Z,19.79
2018-09-06T17:09:27.510Z,19.79
2018-09-06T17:12:03.544Z,19.78
2018-09-06T17:14:39.614Z,19.78
2018-09-06T17:17:15.557Z,19.77
2018-09-06T17:19:51.596Z,19.68
2018-09-06T17:22:27.923Z,19.64
2018-09-06T17:25:04.165Z,19.62
2018-09-06T17:27:40.204Z,19.63
2018-09-06T17:30:16.167Z,19.59
2018-09-06T17:32:52.239Z,19.52
2018-09-06T17:35:28.264Z,19.50
2018-09-06T17:38:04.372Z,19.45
2018-09-06T17:40:40.237Z,19.45
2018-09-06T17:43:16.215Z,19.39
2018-09-06T17:45:52.627Z,19.37
2018-09-06T17:48:28.805Z,19.33
2018-09-06T17:51:04.651Z,19.30
2018-09-06T17:53:40.624Z,19.23
2018-09-06T17:56:16.595Z,19.12
2018-09-06T17:58:53.323Z,19.02
2018-09-06T18:01:36.663Z,18.88
2018-09-06T18:04:12.744Z,18.77
2018-09-06T18:06:48.892Z,18.71
2018-09-06T18:09:25.835Z,18.68
2018-09-06T18:12:01.903Z,18.67
2018-09-06T18:14:37.902Z,18.66
2018-09-06T18:17:13.872Z,18.64
2018-09-06T18:19:50.240Z,18.59
2018-09-06T18:22:26.376Z,18.57
2018-09-06T18:25:02.451Z,18.54
2018-09-06T18:27:38.559Z,18.52
2018-09-06T18:30:14.621Z,18.47
2018-09-06T18:32:50.777Z,18.41
2018-09-06T18:35:26.854Z,18.40
2018-09-06T18:38:02.727Z,18.39
2018-09-06T18:40:38.717Z,18.36
2018-09-06T18:43:14.656Z,18.36
2018-09-06T18:45:50.943Z,18.32
2018-09-06T18:48:26.809Z,18.29
2018-09-06T18:51:02.914Z,18.28
2018-09-06T18:53:39.081Z,18.24
2018-09-06T18:56:15.259Z,18.19
2018-09-06T18:58:51.463Z,18.18
2018-09-06T19:01:27.624Z,18.15
2018-09-06T19:04:03.673Z,18.08
2018-09-06T19:06:39.598Z,18.04
2018-09-06T19:09:15.489Z,18.02
2018-09-06T19:11:51.635Z,17.98
2018-09-06T19:14:27.780Z,18.09
2018-09-06T19:17:03.933Z,18.26
2018-09-06T19:19:40.027Z,18.33
2018-09-06T19:22:16.009Z,18.36
2018-09-06T19:24:52.128Z,18.43
2018-09-06T19:27:28.166Z,18.43
2018-09-06T19:30:04.304Z,18.37
2018-09-06T19:32:40.613Z,18.33
2018-09-06T19:35:16.921Z,18.31
2018-09-06T19:37:53.197Z,18.32
2018-09-06T19:40:29.425Z,18.26
2018-09-06T19:43:05.575Z,18.27
2018-09-06T19:45:41.682Z,18.16
2018-09-06T19:48:17.842Z,18.11
2018-09-06T19:50:53.672Z,18.07
2018-09-06T19:53:29.738Z,18.07
2018-09-06T19:56:05.821Z,18.02
2018-09-06T19:58:42.144Z,18.00
2018-09-06T20:01:18.543Z,17.97
2018-09-06T20:03:54.700Z,18.01
2018-09-06T20:06:30.962Z,17.98
2018-09-06T20:09:08.272Z,17.97
2018-09-06T20:11:44.215Z,17.88
2018-09-06T20:14:20.273Z,17.82
2018-09-06T20:16:56.374Z,17.80
2018-09-06T20:19:32.595Z,17.73
2018-09-06T20:22:10.238Z,17.65
2018-09-06T20:24:46.075Z,17.62
2018-09-06T20:27:21.889Z,17.53
2018-09-06T20:29:57.960Z,17.54
2018-09-06T20:32:33.904Z,17.61
2018-09-06T20:35:09.905Z,17.61
2018-09-06T20:37:45.840Z,17.54
2018-09-06T20:40:21.812Z,17.56
2018-09-06T20:42:59.562Z,17.55
2018-09-06T20:45:35.483Z,17.51
2018-09-06T20:48:11.412Z,17.52
2018-09-06T20:50:47.461Z,17.40
2018-09-06T20:53:23.711Z,17.17
2018-09-06T20:55:59.662Z,17.06
2018-09-06T20:58:35.682Z,16.95
2018-09-06T21:01:11.745Z,16.85
2018-09-06T21:03:47.664Z,16.80
2018-09-06T21:06:23.807Z,16.69
2018-09-06T21:08:59.892Z,16.67
2018-09-06T21:11:35.791Z,16.62
2018-09-06T21:14:11.814Z,16.61
2018-09-06T21:16:47.681Z,16.59
2018-09-06T21:19:23.667Z,16.56
2018-09-06T21:21:59.560Z,16.57
2018-09-06T21:24:35.652Z,16.55
2018-09-06T21:27:11.610Z,16.61
2018-09-06T21:29:47.518Z,16.56
2018-09-06T21:32:23.488Z,16.57
2018-09-06T21:34:59.432Z,16.57
2018-09-06T21:37:36.153Z,16.59
2018-09-06T21:40:12.166Z,16.56
2018-09-06T21:42:48.741Z,16.57
2018-09-06T21:45:24.794Z,16.56
2018-09-06T21:48:00.793Z,16.56
2018-09-06T21:50:36.789Z,16.54
2018-09-06T21:53:12.772Z,16.57
2018-09-06T21:55:48.937Z,16.57
2018-09-06T21:58:25.070Z,16.58
2018-09-06T22:01:01.481Z,16.56
2018-09-06T22:03:42.399Z,16.54
2018-09-06T22:06:18.550Z,16.52
2018-09-06T22:08:54.484Z,16.50
2018-09-06T22:11:30.469Z,16.51
2018-09-06T22:14:06.457Z,16.54
2018-09-06T22:16:42.472Z,16.53
2018-09-06T22:19:18.438Z,16.54
2018-09-06T22:21:54.296Z,16.53
2018-09-06T22:24:30.269Z,16.46
2018-09-06T22:27:06.402Z,16.41
2018-09-06T22:29:42.291Z,16.36
2018-09-06T22:32:18.373Z,16.33
2018-09-06T22:34:54.511Z,16.33
2018-09-06T22:37:30.429Z,16.28
2018-09-06T22:40:06.758Z,16.30
2018-09-06T22:42:42.692Z,16.27
2018-09-06T22:45:18.788Z,16.24
2018-09-06T22:47:54.780Z,16.24
2018-09-06T22:50:30.674Z,16.22
2018-09-06T22:53:06.769Z,16.23
2018-09-06T22:55:42.799Z,16.21
2018-09-06T22:58:18.728Z,16.23
2018-09-06T23:00:54.746Z,16.19
2018-09-06T23:03:38.993Z,16.16
2018-09-06T23:06:14.953Z,16.13
2018-09-06T23:08:51.400Z,16.07
2018-09-06T23:11:27.260Z,16.02
2018-09-06T23:14:03.347Z,16.02
2018-09-06T23:16:39.424Z,15.97
2018-09-06T23:19:15.485Z,15.94
2018-09-06T23:21:51.683Z,15.93
2018-09-06T23:24:27.659Z,15.90
2018-09-06T23:27:03.639Z,15.93
2018-09-06T23:29:40.698Z,15.91
2018-09-06T23:32:16.564Z,15.96
2018-09-06T23:34:52.704Z,15.94
2018-09-06T23:37:28.713Z,15.96
2018-09-06T23:40:05.027Z,15.95
2018-09-06T23:42:41.224Z,15.94
2018-09-06T23:45:17.431Z,16.01
2018-09-06T23:47:53.737Z,15.99
2018-09-06T23:50:29.858Z,15.99
2018-09-06T23:53:05.956Z,16.09
2018-09-06T23:55:41.964Z,15.98
2018-09-06T23:58:18.261Z,15.94
